South Prairie, Washington
Current Conditions -  °F | °C
As of 6:15 AM on Sunday 25 Jan 2015 (Local Time) from KPLU Reporting Station
Moderate Fog Moderate Fog  
Wind Chill: 50°   Ceiling: 200
Heat Index: 50°   Visibility: 0mi
Dew Point: 50°   Wind: 0mph
Humidity: 100%   Direction: NA
Pressure: 30.19"   Gusts: NA
Location:  47.14°N, 122.1°W
Report Text: KPLU 251415Z AUTO 00000KT M1/4SM FG OVC002 10/10 A3019 RMK AO2
Loading
Personal Weather Stations






























Interactive Weather Map New forecast layout! Learn more

10-Day Weather Forecast

Advertisements
Track Severe Weather on mobile